sensor_id;sensor_type;location;lat;lon;timestamp;temperature;humidity
14016;DHT22;7083;48.854;9.158;2022-12-29T00:02:09;8.00;99.90
14016;DHT22;7083;48.854;9.158;2022-12-29T00:04:36;8.00;99.90
14016;DHT22;7083;48.854;9.158;2022-12-29T00:07:05;8.00;99.90
14016;DHT22;7083;48.854;9.158;2022-12-29T00:09:32;8.00;99.90
14016;DHT22;7083;48.854;9.158;2022-12-29T00:12:00;8.00;99.90
14016;DHT22;7083;48.854;9.158;2022-12-29T00:14:27;8.10;99.90
14016;DHT22;7083;48.854;9.158;2022-12-29T00:17:11;8.10;99.90
14016;DHT22;7083;48.854;9.158;2022-12-29T00:19:38;8.10;99.90
14016;DHT22;7083;48.854;9.158;2022-12-29T00:22:24;8.10;99.90
14016;DHT22;7083;48.854;9.158;2022-12-29T00:25:12;8.20;99.90
14016;DHT22;7083;48.854;9.158;2022-12-29T00:27:57;8.20;99.90
14016;DHT22;7083;48.854;9.158;2022-12-29T00:30:41;8.20;99.90
14016;DHT22;7083;48.854;9.158;2022-12-29T00:33:28;8.20;99.90
14016;DHT22;7083;48.854;9.158;2022-12-29T00:36:16;8.30;99.90
14016;DHT22;7083;48.854;9.158;2022-12-29T00:38:49;8.30;99.90
14016;DHT22;7083;48.854;9.158;2022-12-29T00:41:33;8.40;99.90
14016;DHT22;7083;48.854;9.158;2022-12-29T00:44:29;8.40;99.90
14016;DHT22;7083;48.854;9.158;2022-12-29T00:46:55;8.40;99.90
14016;DHT22;7083;48.854;9.158;2022-12-29T00:49:22;8.40;99.90
14016;DHT22;7083;48.854;9.158;2022-12-29T00:51:59;8.40;99.90
14016;DHT22;7083;48.854;9.158;2022-12-29T00:54:28;8.40;99.90
14016;DHT22;7083;48.854;9.158;2022-12-29T00:56:55;8.50;99.90
14016;DHT22;7083;48.854;9.158;2022-12-29T00:59:22;8.40;99.90
14016;DHT22;7083;48.854;9.158;2022-12-29T01:01:49;8.40;99.90
14016;DHT22;7083;48.854;9.158;2022-12-29T01:04:16;8.50;99.90
14016;DHT22;7083;48.854;9.158;2022-12-29T01:06:43;8.50;99.90
14016;DHT22;7083;48.854;9.158;2022-12-29T01:09:10;8.50;99.90
14016;DHT22;7083;48.854;9.158;2022-12-29T01:11:56;8.40;99.90
14016;DHT22;7083;48.854;9.158;2022-12-29T01:14:23;8.40;99.90
14016;DHT22;7083;48.854;9.158;2022-12-29T01:16:50;8.40;99.90
14016;DHT22;7083;48.854;9.158;2022-12-29T01:19:18;8.40;99.90
14016;DHT22;7083;48.854;9.158;2022-12-29T01:21:44;8.40;99.90
14016;DHT22;7083;48.854;9.158;2022-12-29T01:24:11;8.40;99.90
14016;DHT22;7083;48.854;9.158;2022-12-29T01:26:38;8.40;99.90
14016;DHT22;7083;48.854;9.158;2022-12-29T01:29:06;8.40;99.90
14016;DHT22;7083;48.854;9.158;2022-12-29T01:31:33;8.40;99.90
14016;DHT22;7083;48.854;9.158;2022-12-29T01:34:00;8.40;99.90
14016;DHT22;7083;48.854;9.158;2022-12-29T01:36:27;8.40;99.90
14016;DHT22;7083;48.854;9.158;2022-12-29T01:38:53;8.40;99.90
14016;DHT22;7083;48.854;9.158;2022-12-29T01:41:20;8.40;99.90
14016;DHT22;7083;48.854;9.158;2022-12-29T01:43:49;8.30;99.90
14016;DHT22;7083;48.854;9.158;2022-12-29T01:46:21;8.30;99.90
14016;DHT22;7083;48.854;9.158;2022-12-29T01:48:52;8.30;99.90
14016;DHT22;7083;48.854;9.158;2022-12-29T01:51:22;8.30;99.90
14016;DHT22;7083;48.854;9.158;2022-12-29T01:53:49;8.30;99.90
14016;DHT22;7083;48.854;9.158;2022-12-29T01:56:18;8.40;99.90
14016;DHT22;7083;48.854;9.158;2022-12-29T01:58:48;8.40;99.90
14016;DHT22;7083;48.854;9.158;2022-12-29T02:01:20;8.40;99.90
14016;DHT22;7083;48.854;9.158;2022-12-29T02:03:47;8.40;99.90
14016;DHT22;7083;48.854;9.158;2022-12-29T02:06:18;8.40;99.90
14016;DHT22;7083;48.854;9.158;2022-12-29T02:08:47;8.40;99.90
14016;DHT22;7083;48.854;9.158;2022-12-29T02:11:16;8.40;99.90
14016;DHT22;7083;48.854;9.158;2022-12-29T02:13:42;8.40;99.90
14016;DHT22;7083;48.854;9.158;2022-12-29T02:16:20;8.40;99.90
14016;DHT22;7083;48.854;9.158;2022-12-29T02:18:59;8.40;99.90
14016;DHT22;7083;48.854;9.158;2022-12-29T02:24:57;8.40;99.90
14016;DHT22;7083;48.854;9.158;2022-12-29T02:27:40;8.50;99.90
14016;DHT22;7083;48.854;9.158;2022-12-29T02:30:27;8.50;99.90
14016;DHT22;7083;48.854;9.158;2022-12-29T02:32:58;8.40;99.90
14016;DHT22;7083;48.854;9.158;2022-12-29T02:35:34;8.50;99.90
14016;DHT22;7083;48.854;9.158;2022-12-29T02:38:10;8.50;99.90
14016;DHT22;7083;48.854;9.158;2022-12-29T02:40:42;8.50;99.90
14016;DHT22;7083;48.854;9.158;2022-12-29T02:43:18;8.50;99.90
14016;DHT22;7083;48.854;9.158;2022-12-29T02:45:54;8.50;99.90
14016;DHT22;7083;48.854;9.158;2022-12-29T02:48:25;8.50;99.90
14016;DHT22;7083;48.854;9.158;2022-12-29T02:50:58;8.50;99.90
14016;DHT22;7083;48.854;9.158;2022-12-29T02:53:26;8.50;99.90
14016;DHT22;7083;48.854;9.158;2022-12-29T02:56:12;8.50;99.90
14016;DHT22;7083;48.854;9.158;2022-12-29T02:58:39;8.60;99.90
14016;DHT22;7083;48.854;9.158;2022-12-29T03:01:23;8.50;99.90
14016;DHT22;7083;48.854;9.158;2022-12-29T03:04:03;8.60;99.90
14016;DHT22;7083;48.854;9.158;2022-12-29T03:06:43;8.60;99.90
14016;DHT22;7083;48.854;9.158;2022-12-29T03:09:23;8.60;99.90
14016;DHT22;7083;48.854;9.158;2022-12-29T03:11:58;8.60;99.90
14016;DHT22;7083;48.854;9.158;2022-12-29T03:14:44;8.60;99.90
14016;DHT22;7083;48.854;9.158;2022-12-29T03:17:41;8.60;99.90
14016;DHT22;7083;48.854;9.158;2022-12-29T03:20:13;8.70;99.90
14016;DHT22;7083;48.854;9.158;2022-12-29T03:22:46;8.70;99.90
14016;DHT22;7083;48.854;9.158;2022-12-29T03:25:17;8.70;99.90
14016;DHT22;7083;48.854;9.158;2022-12-29T03:27:49;8.70;99.90
14016;DHT22;7083;48.854;9.158;2022-12-29T03:30:17;8.80;99.90
14016;DHT22;7083;48.854;9.158;2022-12-29T03:32:48;8.80;99.90
14016;DHT22;7083;48.854;9.158;2022-12-29T03:35:18;8.80;99.90
14016;DHT22;7083;48.854;9.158;2022-12-29T03:37:52;8.80;99.90
14016;DHT22;7083;48.854;9.158;2022-12-29T03:40:21;8.80;99.90
14016;DHT22;7083;48.854;9.158;2022-12-29T03:42:49;8.80;99.90
14016;DHT22;7083;48.854;9.158;2022-12-29T03:45:16;8.90;99.90
14016;DHT22;7083;48.854;9.158;2022-12-29T03:47:45;9.00;99.90
14016;DHT22;7083;48.854;9.158;2022-12-29T03:50:11;9.10;99.90
14016;DHT22;7083;48.854;9.158;2022-12-29T03:52:38;9.20;99.90
14016;DHT22;7083;48.854;9.158;2022-12-29T03:55:05;9.30;99.60
14016;DHT22;7083;48.854;9.158;2022-12-29T03:57:32;9.60;98.70
14016;DHT22;7083;48.854;9.158;2022-12-29T03:59:59;9.80;98.00
14016;DHT22;7083;48.854;9.158;2022-12-29T04:02:26;9.90;97.50
14016;DHT22;7083;48.854;9.158;2022-12-29T04:04:54;9.90;97.10
14016;DHT22;7083;48.854;9.158;2022-12-29T04:07:20;10.00;96.40
14016;DHT22;7083;48.854;9.158;2022-12-29T04:09:47;9.90;96.90
14016;DHT22;7083;48.854;9.158;2022-12-29T04:12:14;9.90;96.90
14016;DHT22;7083;48.854;9.158;2022-12-29T04:14:40;9.90;96.80
14016;DHT22;7083;48.854;9.158;2022-12-29T04:17:07;9.90;96.80
14016;DHT22;7083;48.854;9.158;2022-12-29T04:19:34;9.90;96.90
14016;DHT22;7083;48.854;9.158;2022-12-29T04:22:02;10.00;96.40
14016;DHT22;7083;48.854;9.158;2022-12-29T04:24:28;10.10;96.30
14016;DHT22;7083;48.854;9.158;2022-12-29T04:26:55;10.10;96.20
14016;DHT22;7083;48.854;9.158;2022-12-29T04:29:22;10.20;95.90
14016;DHT22;7083;48.854;9.158;2022-12-29T04:31:49;10.30;95.80
14016;DHT22;7083;48.854;9.158;2022-12-29T04:34:15;10.30;95.70
14016;DHT22;7083;48.854;9.158;2022-12-29T04:36:42;10.20;95.80
14016;DHT22;7083;48.854;9.158;2022-12-29T04:39:10;10.10;96.00
14016;DHT22;7083;48.854;9.158;2022-12-29T04:41:37;10.00;96.00
14016;DHT22;7083;48.854;9.158;2022-12-29T04:44:03;9.80;96.80
14016;DHT22;7083;48.854;9.158;2022-12-29T04:46:30;9.70;97.20
14016;DHT22;7083;48.854;9.158;2022-12-29T04:48:57;9.50;97.50
14016;DHT22;7083;48.854;9.158;2022-12-29T04:51:26;9.50;97.90
14016;DHT22;7083;48.854;9.158;2022-12-29T04:53:52;9.40;98.10
14016;DHT22;7083;48.854;9.158;2022-12-29T04:56:20;9.40;98.40
14016;DHT22;7083;48.854;9.158;2022-12-29T04:58:47;9.30;98.60
14016;DHT22;7083;48.854;9.158;2022-12-29T05:01:14;9.30;99.00
14016;DHT22;7083;48.854;9.158;2022-12-29T05:03:40;9.40;99.30
14016;DHT22;7083;48.854;9.158;2022-12-29T05:06:07;9.50;99.30
14016;DHT22;7083;48.854;9.158;2022-12-29T05:08:34;9.40;99.20
14016;DHT22;7083;48.854;9.158;2022-12-29T05:11:01;9.40;99.50
14016;DHT22;7083;48.854;9.158;2022-12-29T05:13:29;9.60;99.30
14016;DHT22;7083;48.854;9.158;2022-12-29T05:15:55;9.60;99.30
14016;DHT22;7083;48.854;9.158;2022-12-29T05:18:22;9.50;99.30
14016;DHT22;7083;48.854;9.158;2022-12-29T05:20:49;9.60;99.40
14016;DHT22;7083;48.854;9.158;2022-12-29T05:23:15;9.70;99.60
14016;DHT22;7083;48.854;9.158;2022-12-29T05:25:43;9.70;99.60
14016;DHT22;7083;48.854;9.158;2022-12-29T05:28:10;10.00;98.40
14016;DHT22;7083;48.854;9.158;2022-12-29T05:30:38;10.10;98.10
14016;DHT22;7083;48.854;9.158;2022-12-29T05:33:05;10.30;97.90
14016;DHT22;7083;48.854;9.158;2022-12-29T05:35:32;10.40;97.60
14016;DHT22;7083;48.854;9.158;2022-12-29T05:37:59;10.50;97.20
14016;DHT22;7083;48.854;9.158;2022-12-29T05:40:25;10.60;96.70
14016;DHT22;7083;48.854;9.158;2022-12-29T05:42:52;10.80;96.30
14016;DHT22;7083;48.854;9.158;2022-12-29T05:45:19;10.90;96.00
14016;DHT22;7083;48.854;9.158;2022-12-29T05:47:47;11.00;95.80
14016;DHT22;7083;48.854;9.158;2022-12-29T05:50:13;11.10;95.60
14016;DHT22;7083;48.854;9.158;2022-12-29T05:52:40;11.30;95.20
14016;DHT22;7083;48.854;9.158;2022-12-29T05:55:07;11.30;95.00
14016;DHT22;7083;48.854;9.158;2022-12-29T05:57:34;11.40;94.70
14016;DHT22;7083;48.854;9.158;2022-12-29T06:00:02;11.50;94.70
14016;DHT22;7083;48.854;9.158;2022-12-29T06:02:29;11.60;94.40
14016;DHT22;7083;48.854;9.158;2022-12-29T06:04:57;11.60;94.10
14016;DHT22;7083;48.854;9.158;2022-12-29T06:07:23;11.60;94.20
14016;DHT22;7083;48.854;9.158;2022-12-29T06:09:50;11.50;94.10
14016;DHT22;7083;48.854;9.158;2022-12-29T06:12:17;11.40;94.40
14016;DHT22;7083;48.854;9.158;2022-12-29T06:14:43;11.30;94.30
14016;DHT22;7083;48.854;9.158;2022-12-29T06:17:10;11.30;94.40
14016;DHT22;7083;48.854;9.158;2022-12-29T06:19:37;11.30;94.20
14016;DHT22;7083;48.854;9.158;2022-12-29T06:22:05;11.40;94.10
14016;DHT22;7083;48.854;9.158;2022-12-29T06:24:33;11.30;94.00
14016;DHT22;7083;48.854;9.158;2022-12-29T06:26:59;11.30;94.20
14016;DHT22;7083;48.854;9.158;2022-12-29T06:29:26;11.20;94.20
14016;DHT22;7083;48.854;9.158;2022-12-29T06:31:53;11.30;94.20
14016;DHT22;7083;48.854;9.158;2022-12-29T06:34:23;11.20;94.30
14016;DHT22;7083;48.854;9.158;2022-12-29T06:36:49;11.20;94.40
14016;DHT22;7083;48.854;9.158;2022-12-29T06:39:18;11.20;94.20
14016;DHT22;7083;48.854;9.158;2022-12-29T06:41:44;11.10;94.30
14016;DHT22;7083;48.854;9.158;2022-12-29T06:44:11;11.00;94.50
14016;DHT22;7083;48.854;9.158;2022-12-29T06:46:38;10.90;94.50
14016;DHT22;7083;48.854;9.158;2022-12-29T06:49:04;11.00;94.50
14016;DHT22;7083;48.854;9.158;2022-12-29T06:51:31;11.00;94.50
14016;DHT22;7083;48.854;9.158;2022-12-29T06:53:58;11.00;94.60
14016;DHT22;7083;48.854;9.158;2022-12-29T06:56:26;10.90;94.50
14016;DHT22;7083;48.854;9.158;2022-12-29T06:58:53;10.90;94.50
14016;DHT22;7083;48.854;9.158;2022-12-29T07:01:19;10.80;94.60
14016;DHT22;7083;48.854;9.158;2022-12-29T07:03:46;10.80;94.50
14016;DHT22;7083;48.854;9.158;2022-12-29T07:06:13;10.90;94.70
14016;DHT22;7083;48.854;9.158;2022-12-29T07:08:39;10.70;94.70
14016;DHT22;7083;48.854;9.158;2022-12-29T07:11:06;10.60;94.80
14016;DHT22;7083;48.854;9.158;2022-12-29T07:13:35;10.40;95.10
14016;DHT22;7083;48.854;9.158;2022-12-29T07:16:05;10.30;95.30
14016;DHT22;7083;48.854;9.158;2022-12-29T07:18:31;10.70;95.80
14016;DHT22;7083;48.854;9.158;2022-12-29T07:20:58;10.10;95.90
14016;DHT22;7083;48.854;9.158;2022-12-29T07:23:25;10.10;96.10
14016;DHT22;7083;48.854;9.158;2022-12-29T07:25:59;10.00;96.20
14016;DHT22;7083;48.854;9.158;2022-12-29T07:28:26;10.00;96.20
14016;DHT22;7083;48.854;9.158;2022-12-29T07:30:54;10.00;96.40
14016;DHT22;7083;48.854;9.158;2022-12-29T07:33:20;10.00;96.20
14016;DHT22;7083;48.854;9.158;2022-12-29T07:35:47;10.00;96.30
14016;DHT22;7083;48.854;9.158;2022-12-29T07:38:14;10.10;96.00
14016;DHT22;7083;48.854;9.158;2022-12-29T07:40:42;10.10;96.00
14016;DHT22;7083;48.854;9.158;2022-12-29T07:43:09;10.10;96.20
14016;DHT22;7083;48.854;9.158;2022-12-29T07:45:35;10.00;96.20
14016;DHT22;7083;48.854;9.158;2022-12-29T07:48:04;9.90;96.70
14016;DHT22;7083;48.854;9.158;2022-12-29T07:50:33;9.90;97.10
14016;DHT22;7083;48.854;9.158;2022-12-29T07:53:00;9.80;96.90
14016;DHT22;7083;48.854;9.158;2022-12-29T07:55:26;9.70;96.90
14016;DHT22;7083;48.854;9.158;2022-12-29T07:57:53;9.60;97.10
14016;DHT22;7083;48.854;9.158;2022-12-29T08:00:20;9.50;97.30
14016;DHT22;7083;48.854;9.158;2022-12-29T08:02:47;9.50;97.40
14016;DHT22;7083;48.854;9.158;2022-12-29T08:05:15;9.40;97.60
14016;DHT22;7083;48.854;9.158;2022-12-29T08:07:42;9.40;97.80
14016;DHT22;7083;48.854;9.158;2022-12-29T08:10:10;9.30;98.10
14016;DHT22;7083;48.854;9.158;2022-12-29T08:12:38;9.30;98.30
14016;DHT22;7083;48.854;9.158;2022-12-29T08:15:06;9.30;98.30
14016;DHT22;7083;48.854;9.158;2022-12-29T08:17:34;9.30;98.40
14016;DHT22;7083;48.854;9.158;2022-12-29T08:20:00;9.40;98.60
14016;DHT22;7083;48.854;9.158;2022-12-29T08:22:29;9.40;98.70
14016;DHT22;7083;48.854;9.158;2022-12-29T08:24:55;9.40;98.70
14016;DHT22;7083;48.854;9.158;2022-12-29T08:27:22;9.50;98.90
14016;DHT22;7083;48.854;9.158;2022-12-29T08:29:49;9.50;98.90
14016;DHT22;7083;48.854;9.158;2022-12-29T08:32:16;9.50;98.80
14016;DHT22;7083;48.854;9.158;2022-12-29T08:34:42;9.40;98.80
14016;DHT22;7083;48.854;9.158;2022-12-29T08:37:09;9.40;98.90
14016;DHT22;7083;48.854;9.158;2022-12-29T08:39:37;9.40;99.10
14016;DHT22;7083;48.854;9.158;2022-12-29T08:42:04;9.30;99.20
14016;DHT22;7083;48.854;9.158;2022-12-29T08:44:31;9.30;99.30
14016;DHT22;7083;48.854;9.158;2022-12-29T08:46:58;9.30;99.20
14016;DHT22;7083;48.854;9.158;2022-12-29T08:49:25;9.30;99.20
14016;DHT22;7083;48.854;9.158;2022-12-29T08:51:51;9.20;99.50
14016;DHT22;7083;48.854;9.158;2022-12-29T08:54:18;9.20;99.60
14016;DHT22;7083;48.854;9.158;2022-12-29T08:56:46;9.20;99.60
14016;DHT22;7083;48.854;9.158;2022-12-29T08:59:12;9.10;99.70
14016;DHT22;7083;48.854;9.158;2022-12-29T09:01:39;9.10;99.90
14016;DHT22;7083;48.854;9.158;2022-12-29T09:04:06;9.10;99.90
14016;DHT22;7083;48.854;9.158;2022-12-29T09:06:33;9.10;99.90
14016;DHT22;7083;48.854;9.158;2022-12-29T09:09:00;9.20;99.90
14016;DHT22;7083;48.854;9.158;2022-12-29T09:11:27;9.20;99.90
14016;DHT22;7083;48.854;9.158;2022-12-29T09:13:55;9.30;99.90
14016;DHT22;7083;48.854;9.158;2022-12-29T09:16:23;9.40;99.90
14016;DHT22;7083;48.854;9.158;2022-12-29T09:18:50;9.60;99.90
14016;DHT22;7083;48.854;9.158;2022-12-29T09:21:17;9.90;99.90
14016;DHT22;7083;48.854;9.158;2022-12-29T09:23:43;10.10;99.90
14016;DHT22;7083;48.854;9.158;2022-12-29T09:26:10;10.30;99.90
14016;DHT22;7083;48.854;9.158;2022-12-29T09:28:37;10.60;99.90
14016;DHT22;7083;48.854;9.158;2022-12-29T09:31:05;10.80;98.60
14016;DHT22;7083;48.854;9.158;2022-12-29T09:33:32;11.00;97.90
14016;DHT22;7083;48.854;9.158;2022-12-29T09:35:59;11.20;97.20
14016;DHT22;7083;48.854;9.158;2022-12-29T09:38:27;11.30;96.30
14016;DHT22;7083;48.854;9.158;2022-12-29T09:40:55;11.50;96.00
14016;DHT22;7083;48.854;9.158;2022-12-29T09:43:46;11.70;95.30
14016;DHT22;7083;48.854;9.158;2022-12-29T09:46:23;11.80;95.20
14016;DHT22;7083;48.854;9.158;2022-12-29T09:49:04;12.00;94.90
14016;DHT22;7083;48.854;9.158;2022-12-29T09:51:37;12.20;93.90
14016;DHT22;7083;48.854;9.158;2022-12-29T09:54:26;12.30;93.90
14016;DHT22;7083;48.854;9.158;2022-12-29T09:56:56;12.40;94.20
14016;DHT22;7083;48.854;9.158;2022-12-29T09:59:31;12.50;94.20
14016;DHT22;7083;48.854;9.158;2022-12-29T10:02:12;12.70;93.30
14016;DHT22;7083;48.854;9.158;2022-12-29T10:04:40;12.80;92.00
14016;DHT22;7083;48.854;9.158;2022-12-29T10:07:12;13.00;91.30
14016;DHT22;7083;48.854;9.158;2022-12-29T10:09:44;13.20;90.90
14016;DHT22;7083;48.854;9.158;2022-12-29T10:12:22;13.30;90.50
14016;DHT22;7083;48.854;9.158;2022-12-29T10:14:58;13.30;90.40
14016;DHT22;7083;48.854;9.158;2022-12-29T10:17:36;13.40;90.20
14016;DHT22;7083;48.854;9.158;2022-12-29T10:20:19;13.30;90.60
14016;DHT22;7083;48.854;9.158;2022-12-29T10:25:38;13.30;90.80
14016;DHT22;7083;48.854;9.158;2022-12-29T10:28:16;13.50;90.50
14016;DHT22;7083;48.854;9.158;2022-12-29T10:30:47;13.60;90.30
14016;DHT22;7083;48.854;9.158;2022-12-29T10:33:19;13.60;90.20
14016;DHT22;7083;48.854;9.158;2022-12-29T10:35:47;13.60;90.10
14016;DHT22;7083;48.854;9.158;2022-12-29T10:38:20;13.60;90.30
14016;DHT22;7083;48.854;9.158;2022-12-29T10:40:51;13.50;90.40
14016;DHT22;7083;48.854;9.158;2022-12-29T10:43:24;13.50;90.30
14016;DHT22;7083;48.854;9.158;2022-12-29T10:45:53;13.50;90.60
14016;DHT22;7083;48.854;9.158;2022-12-29T10:48:23;13.50;90.80
14016;DHT22;7083;48.854;9.158;2022-12-29T10:50:55;13.40;90.90
14016;DHT22;7083;48.854;9.158;2022-12-29T10:53:25;13.50;91.00
14016;DHT22;7083;48.854;9.158;2022-12-29T10:55:53;13.50;91.20
14016;DHT22;7083;48.854;9.158;2022-12-29T10:58:22;13.60;91.50
14016;DHT22;7083;48.854;9.158;2022-12-29T11:00:51;13.60;91.60
14016;DHT22;7083;48.854;9.158;2022-12-29T11:03:48;13.70;91.70
14016;DHT22;7083;48.854;9.158;2022-12-29T11:06:22;13.80;91.60
14016;DHT22;7083;48.854;9.158;2022-12-29T11:08:53;13.90;91.60
14016;DHT22;7083;48.854;9.158;2022-12-29T11:11:24;13.90;91.70
14016;DHT22;7083;48.854;9.158;2022-12-29T11:13:57;14.00;91.70
14016;DHT22;7083;48.854;9.158;2022-12-29T11:16:29;14.10;91.00
14016;DHT22;7083;48.854;9.158;2022-12-29T11:18:58;14.20;90.60
14016;DHT22;7083;48.854;9.158;2022-12-29T11:21:31;14.20;90.70
14016;DHT22;7083;48.854;9.158;2022-12-29T11:23:59;14.30;90.10
14016;DHT22;7083;48.854;9.158;2022-12-29T11:26:27;14.30;89.60
14016;DHT22;7083;48.854;9.158;2022-12-29T11:29:17;14.20;90.10
14016;DHT22;7083;48.854;9.158;2022-12-29T11:31:47;14.10;90.00
14016;DHT22;7083;48.854;9.158;2022-12-29T11:34:21;14.10;90.00
14016;DHT22;7083;48.854;9.158;2022-12-29T11:36:49;14.10;90.00
14016;DHT22;7083;48.854;9.158;2022-12-29T11:39:34;14.00;90.00
14016;DHT22;7083;48.854;9.158;2022-12-29T11:42:03;13.90;90.00
14016;DHT22;7083;48.854;9.158;2022-12-29T11:44:35;13.90;89.60
14016;DHT22;7083;48.854;9.158;2022-12-29T11:47:04;13.80;89.50
14016;DHT22;7083;48.854;9.158;2022-12-29T11:49:33;13.80;88.70
14016;DHT22;7083;48.854;9.158;2022-12-29T11:52:00;13.70;88.60
14016;DHT22;7083;48.854;9.158;2022-12-29T11:54:29;13.60;87.40
14016;DHT22;7083;48.854;9.158;2022-12-29T11:56:58;13.40;89.80
14016;DHT22;7083;48.854;9.158;2022-12-29T11:59:43;13.20;89.80
14016;DHT22;7083;48.854;9.158;2022-12-29T12:02:27;13.10;90.10
14016;DHT22;7083;48.854;9.158;2022-12-29T12:05:06;13.00;90.40
14016;DHT22;7083;48.854;9.158;2022-12-29T12:07:39;12.90;90.30
14016;DHT22;7083;48.854;9.158;2022-12-29T12:10:15;12.90;90.30
14016;DHT22;7083;48.854;9.158;2022-12-29T12:12:47;12.90;90.80
14016;DHT22;7083;48.854;9.158;2022-12-29T12:15:19;12.80;91.50
14016;DHT22;7083;48.854;9.158;2022-12-29T12:17:51;12.80;92.30
14016;DHT22;7083;48.854;9.158;2022-12-29T12:20:22;12.80;92.80
14016;DHT22;7083;48.854;9.158;2022-12-29T12:22:58;12.80;93.10
14016;DHT22;7083;48.854;9.158;2022-12-29T12:25:34;12.80;93.30
14016;DHT22;7083;48.854;9.158;2022-12-29T12:28:09;12.80;93.40
14016;DHT22;7083;48.854;9.158;2022-12-29T12:30:41;12.80;93.50
14016;DHT22;7083;48.854;9.158;2022-12-29T12:33:17;12.70;93.70
14016;DHT22;7083;48.854;9.158;2022-12-29T12:35:57;12.70;93.80
14016;DHT22;7083;48.854;9.158;2022-12-29T13:07:25;13.70;93.00
14016;DHT22;7083;48.854;9.158;2022-12-29T13:10:12;13.80;92.70
14016;DHT22;7083;48.854;9.158;2022-12-29T13:12:49;13.70;92.80
14016;DHT22;7083;48.854;9.158;2022-12-29T13:15:26;13.60;93.10
14016;DHT22;7083;48.854;9.158;2022-12-29T13:18:04;13.50;93.40
14016;DHT22;7083;48.854;9.158;2022-12-29T13:20:38;13.40;93.60
14016;DHT22;7083;48.854;9.158;2022-12-29T13:23:11;13.30;93.70
14016;DHT22;7083;48.854;9.158;2022-12-29T13:25:44;13.30;93.90
14016;DHT22;7083;48.854;9.158;2022-12-29T13:28:17;13.30;93.90
14016;DHT22;7083;48.854;9.158;2022-12-29T13:30:52;13.20;93.80
14016;DHT22;7083;48.854;9.158;2022-12-29T13:33:23;13.10;93.80
14016;DHT22;7083;48.854;9.158;2022-12-29T13:35:58;13.10;93.80
14016;DHT22;7083;48.854;9.158;2022-12-29T13:38:32;13.00;94.10
14016;DHT22;7083;48.854;9.158;2022-12-29T13:41:03;12.90;94.30
14016;DHT22;7083;48.854;9.158;2022-12-29T13:43:33;12.90;94.30
14016;DHT22;7083;48.854;9.158;2022-12-29T13:46:05;12.80;94.60
14016;DHT22;7083;48.854;9.158;2022-12-29T13:48:37;12.70;94.70
14016;DHT22;7083;48.854;9.158;2022-12-29T13:51:08;12.70;94.70
14016;DHT22;7083;48.854;9.158;2022-12-29T13:53:42;12.70;94.80
14016;DHT22;7083;48.854;9.158;2022-12-29T13:56:19;12.70;94.90
14016;DHT22;7083;48.854;9.158;2022-12-29T13:58:54;12.60;95.10
14016;DHT22;7083;48.854;9.158;2022-12-29T14:01:24;12.60;95.00
14016;DHT22;7083;48.854;9.158;2022-12-29T14:03:55;12.60;95.20
14016;DHT22;7083;48.854;9.158;2022-12-29T14:06:24;12.60;95.20
14016;DHT22;7083;48.854;9.158;2022-12-29T14:08:55;12.60;95.20
14016;DHT22;7083;48.854;9.158;2022-12-29T14:11:24;12.70;95.30
14016;DHT22;7083;48.854;9.158;2022-12-29T14:13:56;12.60;95.10
14016;DHT22;7083;48.854;9.158;2022-12-29T14:16:32;12.70;95.00
14016;DHT22;7083;48.854;9.158;2022-12-29T14:19:11;12.60;95.20
14016;DHT22;7083;48.854;9.158;2022-12-29T14:21:40;12.50;95.30
14016;DHT22;7083;48.854;9.158;2022-12-29T14:24:28;12.50;95.50
14016;DHT22;7083;48.854;9.158;2022-12-29T14:30:49;12.40;95.90
14016;DHT22;7083;48.854;9.158;2022-12-29T14:33:16;12.40;96.10
14016;DHT22;7083;48.854;9.158;2022-12-29T14:35:45;12.40;96.30
14016;DHT22;7083;48.854;9.158;2022-12-29T14:38:18;12.50;96.10
14016;DHT22;7083;48.854;9.158;2022-12-29T14:40:46;12.50;96.10
14016;DHT22;7083;48.854;9.158;2022-12-29T14:43:18;12.40;96.30
14016;DHT22;7083;48.854;9.158;2022-12-29T14:45:54;12.40;96.30
14016;DHT22;7083;48.854;9.158;2022-12-29T14:51:21;12.30;96.80
14016;DHT22;7083;48.854;9.158;2022-12-29T14:53:53;12.30;96.50
14016;DHT22;7083;48.854;9.158;2022-12-29T14:56:25;12.30;96.40
14016;DHT22;7083;48.854;9.158;2022-12-29T14:58:54;12.20;96.60
14016;DHT22;7083;48.854;9.158;2022-12-29T15:01:28;12.20;96.70
14016;DHT22;7083;48.854;9.158;2022-12-29T15:04:02;12.20;96.70
14016;DHT22;7083;48.854;9.158;2022-12-29T15:06:30;12.10;96.60
14016;DHT22;7083;48.854;9.158;2022-12-29T15:09:02;12.10;96.80
14016;DHT22;7083;48.854;9.158;2022-12-29T15:11:44;12.10;96.80
14016;DHT22;7083;48.854;9.158;2022-12-29T15:14:30;12.10;96.70
14016;DHT22;7083;48.854;9.158;2022-12-29T15:16:58;12.00;96.70
14016;DHT22;7083;48.854;9.158;2022-12-29T15:19:26;12.00;96.90
14016;DHT22;7083;48.854;9.158;2022-12-29T15:21:54;11.90;97.00
14016;DHT22;7083;48.854;9.158;2022-12-29T15:24:22;11.90;97.10
14016;DHT22;7083;48.854;9.158;2022-12-29T15:26:51;11.90;97.20
14016;DHT22;7083;48.854;9.158;2022-12-29T15:29:32;11.80;97.30
14016;DHT22;7083;48.854;9.158;2022-12-29T15:32:11;11.80;97.50
14016;DHT22;7083;48.854;9.158;2022-12-29T15:34:42;11.80;97.50
14016;DHT22;7083;48.854;9.158;2022-12-29T15:37:09;11.80;97.70
14016;DHT22;7083;48.854;9.158;2022-12-29T15:39:36;11.80;98.60
14016;DHT22;7083;48.854;9.158;2022-12-29T15:42:05;11.70;99.90
14016;DHT22;7083;48.854;9.158;2022-12-29T15:44:38;11.00;99.90
14016;DHT22;7083;48.854;9.158;2022-12-29T15:47:12;10.50;99.90
14016;DHT22;7083;48.854;9.158;2022-12-29T15:49:41;9.90;99.90
14016;DHT22;7083;48.854;9.158;2022-12-29T15:52:09;9.60;99.90
14016;DHT22;7083;48.854;9.158;2022-12-29T15:54:36;9.30;99.90
14016;DHT22;7083;48.854;9.158;2022-12-29T15:57:04;9.10;99.90
14016;DHT22;7083;48.854;9.158;2022-12-29T15:59:46;8.90;99.90
14016;DHT22;7083;48.854;9.158;2022-12-29T16:02:14;8.70;99.90
14016;DHT22;7083;48.854;9.158;2022-12-29T16:04:41;8.60;99.90
14016;DHT22;7083;48.854;9.158;2022-12-29T16:07:23;8.60;99.90
14016;DHT22;7083;48.854;9.158;2022-12-29T16:09:55;8.60;99.90
14016;DHT22;7083;48.854;9.158;2022-12-29T16:12:25;8.50;99.90
14016;DHT22;7083;48.854;9.158;2022-12-29T16:14:55;8.50;99.90
14016;DHT22;7083;48.854;9.158;2022-12-29T16:17:26;8.50;99.90
14016;DHT22;7083;48.854;9.158;2022-12-29T16:19:56;8.40;99.90
14016;DHT22;7083;48.854;9.158;2022-12-29T16:22:28;8.40;99.90
14016;DHT22;7083;48.854;9.158;2022-12-29T16:24:58;8.40;99.90
14016;DHT22;7083;48.854;9.158;2022-12-29T16:27:31;8.40;99.90
14016;DHT22;7083;48.854;9.158;2022-12-29T16:30:04;8.40;99.90
14016;DHT22;7083;48.854;9.158;2022-12-29T16:32:33;8.40;99.90
14016;DHT22;7083;48.854;9.158;2022-12-29T16:35:13;8.40;99.90
14016;DHT22;7083;48.854;9.158;2022-12-29T16:37:43;8.40;99.90
14016;DHT22;7083;48.854;9.158;2022-12-29T16:40:37;8.40;99.90
14016;DHT22;7083;48.854;9.158;2022-12-29T16:43:20;8.30;99.90
14016;DHT22;7083;48.854;9.158;2022-12-29T16:46:19;8.30;99.90
14016;DHT22;7083;48.854;9.158;2022-12-29T16:48:51;8.30;99.90
14016;DHT22;7083;48.854;9.158;2022-12-29T16:51:23;8.30;99.90
14016;DHT22;7083;48.854;9.158;2022-12-29T16:53:53;8.30;99.90
14016;DHT22;7083;48.854;9.158;2022-12-29T16:56:23;8.30;99.90
14016;DHT22;7083;48.854;9.158;2022-12-29T16:59:00;8.30;99.90